Time;durP1;ratioP1;P1;durP2;ratioP2;P2;SDS_P1;SDS_P2;PMS_P1;PMS_P2;Temp;Humidity;BMP_temperature;BMP_pressure;BME280_temperature;BME280_humidity;BME280_pressure;Samples;Min_cycle;Max_cycle;Signal;HPM_P1;HPM_P2
2021/03/14 00:01:37;;;;;;;3.97;1.17;;;5.90;99.90;;;;;;5034783;28;20076;-76
2021/03/14 00:04:03;;;;;;;2.60;1.20;;;6.00;99.90;;;;;;5036088;28;20100;-77
2021/03/14 00:06:29;;;;;;;3.27;1.23;;;5.90;99.90;;;;;;5031826;28;20026;-77
2021/03/14 00:08:54;;;;;;;1.90;1.00;;;5.90;99.90;;;;;;5033019;28;20018;-76
2021/03/14 00:11:20;;;;;;;1.57;0.93;;;5.80;99.90;;;;;;5033200;28;20049;-77
2021/03/14 00:13:46;;;;;;;3.87;1.27;;;5.90;99.90;;;;;;5034221;28;20467;-77
2021/03/14 00:16:12;;;;;;;4.43;1.13;;;6.00;99.90;;;;;;5043672;28;20111;-77
2021/03/14 00:18:41;;;;;;;1.30;1.03;;;6.00;99.90;;;;;;5025520;28;20759;-76
2021/03/14 00:21:09;;;;;;;1.63;1.17;;;5.90;99.90;;;;;;5017750;28;20068;-76
2021/03/14 00:23:35;;;;;;;2.70;1.37;;;5.70;99.90;;;;;;5039550;28;20029;-76
2021/03/14 00:26:01;;;;;;;1.33;0.83;;;5.60;99.90;;;;;;5034597;28;20105;-77
2021/03/14 00:28:27;;;;;;;1.17;0.90;;;5.50;99.90;;;;;;5034636;28;20033;-76
2021/03/14 00:30:53;;;;;;;1.73;0.80;;;5.20;99.90;;;;;;5034618;28;20037;-76
2021/03/14 00:33:19;;;;;;;1.27;0.80;;;5.10;99.90;;;;;;5030457;28;20030;-75
2021/03/14 00:35:44;;;;;;;2.20;0.90;;;4.90;99.90;;;;;;5034472;28;20071;-76
2021/03/14 00:38:10;;;;;;;3.13;1.20;;;4.90;99.90;;;;;;5034543;28;20414;-77
2021/03/14 00:40:36;;;;;;;2.80;1.33;;;4.70;99.90;;;;;;5034267;28;20735;-76
2021/03/14 00:43:05;;;;;;;1.27;0.80;;;4.70;99.90;;;;;;5020686;28;20049;-76
2021/03/14 00:45:32;;;;;;;0.77;0.77;;;4.70;99.90;;;;;;5034335;28;20072;-77
2021/03/14 00:47:59;;;;;;;0.90;0.70;;;4.70;99.90;;;;;;5034169;28;20355;-76
2021/03/14 00:50:25;;;;;;;1.77;0.90;;;4.60;99.90;;;;;;5034326;28;20100;-76
2021/03/14 00:52:51;;;;;;;0.70;0.70;;;4.60;99.90;;;;;;5034332;28;20636;-77
2021/03/14 00:55:16;;;;;;;0.80;0.80;;;4.50;99.90;;;;;;5031681;28;20028;-76
2021/03/14 00:57:42;;;;;;;1.30;0.70;;;4.40;99.90;;;;;;5032801;28;20034;-76
2021/03/14 01:00:08;;;;;;;1.90;0.70;;;4.30;99.90;;;;;;5033716;28;20037;-76
2021/03/14 01:02:34;;;;;;;0.97;0.87;;;4.30;99.90;;;;;;5037805;28;20036;-76
2021/03/14 01:05:00;;;;;;;1.27;0.87;;;4.20;99.90;;;;;;5033129;28;20033;-75
2021/03/14 01:07:25;;;;;;;1.37;0.80;;;4.20;99.90;;;;;;5017345;28;20394;-76
2021/03/14 01:09:51;;;;;;;1.90;0.77;;;4.10;99.90;;;;;;5021232;28;20113;-76
2021/03/14 01:12:16;;;;;;;0.83;0.70;;;4.10;99.90;;;;;;5033549;28;20364;-75
2021/03/14 01:14:42;;;;;;;1.03;0.70;;;4.00;99.90;;;;;;5033483;28;20049;-75
2021/03/14 01:17:07;;;;;;;1.10;0.87;;;3.90;99.90;;;;;;5025155;28;20021;-75
2021/03/14 01:19:33;;;;;;;3.10;0.90;;;3.80;99.90;;;;;;5017897;28;20036;-76
2021/03/14 01:21:59;;;;;;;2.27;0.90;;;3.70;99.90;;;;;;5033464;28;20663;-75
2021/03/14 01:24:24;;;;;;;1.47;0.93;;;3.60;99.90;;;;;;5033497;28;20061;-75
2021/03/14 01:26:50;;;;;;;1.57;0.90;;;3.60;99.90;;;;;;5033652;28;20363;-75
2021/03/14 01:29:16;;;;;;;1.20;1.00;;;3.60;99.90;;;;;;5032915;28;20034;-75
2021/03/14 01:31:42;;;;;;;2.20;0.90;;;3.60;99.90;;;;;;5033339;28;20373;-75
2021/03/14 01:34:07;;;;;;;1.43;0.80;;;3.50;99.90;;;;;;5033373;28;20026;-75
2021/03/14 01:36:33;;;;;;;0.80;0.80;;;3.40;99.90;;;;;;5032797;28;20476;-75
2021/03/14 01:38:58;;;;;;;0.80;0.73;;;3.30;99.90;;;;;;5033083;28;20025;-75
2021/03/14 01:41:24;;;;;;;1.17;0.80;;;3.30;99.90;;;;;;5015248;28;20434;-75
2021/03/14 01:43:50;;;;;;;0.70;0.70;;;3.20;99.90;;;;;;5015277;28;20488;-75
2021/03/14 01:46:15;;;;;;;0.70;0.70;;;3.10;99.90;;;;;;5015160;28;20112;-76
2021/03/14 01:48:41;;;;;;;1.27;0.70;;;3.10;99.90;;;;;;5032972;28;20124;-75
2021/03/14 01:51:07;;;;;;;0.70;0.70;;;3.10;99.90;;;;;;5032990;28;20465;-76
2021/03/14 01:53:33;;;;;;;1.77;0.70;;;3.10;99.90;;;;;;5032741;28;20491;-76
2021/03/14 01:56:00;;;;;;;0.77;0.77;;;3.10;99.90;;;;;;5024690;28;20026;-76
2021/03/14 01:58:27;;;;;;;0.60;0.60;;;3.10;99.90;;;;;;5033381;28;20017;-76
2021/03/14 02:00:54;;;;;;;0.97;0.80;;;3.10;99.90;;;;;;5033431;28;20083;-76
2021/03/14 02:03:24;;;;;;;0.60;0.60;;;3.10;99.90;;;;;;5033497;28;20413;-76
2021/03/14 02:05:50;;;;;;;0.77;0.77;;;3.30;99.90;;;;;;5033631;28;20048;-76
2021/03/14 02:08:17;;;;;;;0.77;0.70;;;3.20;99.90;;;;;;5033278;28;20029;-76
2021/03/14 02:10:43;;;;;;;0.60;0.60;;;3.20;99.90;;;;;;5027828;28;20041;-76
2021/03/14 02:13:22;;;;;;;0.70;0.70;;;3.20;99.90;;;;;;5033231;28;20098;-76
2021/03/14 02:15:55;;;;;;;0.63;0.63;;;3.20;99.90;;;;;;5017513;28;20501;-77
2021/03/14 02:18:23;;;;;;;0.73;0.73;;;3.30;99.90;;;;;;5032504;28;20025;-76
2021/03/14 02:20:49;;;;;;;0.90;0.70;;;3.30;99.90;;;;;;5017049;28;20075;-76
2021/03/14 02:23:23;;;;;;;1.03;0.67;;;3.30;99.90;;;;;;5026008;28;20033;-76
2021/03/14 02:25:58;;;;;;;1.10;0.77;;;3.40;99.90;;;;;;5015194;28;20466;-76
2021/03/14 02:28:24;;;;;;;0.80;0.80;;;3.40;99.90;;;;;;5033087;28;20030;-76
2021/03/14 02:30:50;;;;;;;0.70;0.70;;;3.40;99.90;;;;;;5015210;28;20021;-76
2021/03/14 02:33:20;;;;;;;1.63;0.70;;;3.30;99.90;;;;;;5032775;28;20074;-77
2021/03/14 02:35:47;;;;;;;0.70;0.70;;;3.30;99.90;;;;;;5032836;28;20021;-77
2021/03/14 02:38:14;;;;;;;0.60;0.60;;;3.20;99.90;;;;;;5032828;28;20025;-77
2021/03/14 02:40:40;;;;;;;0.70;0.70;;;3.30;99.90;;;;;;5032820;28;20028;-77
2021/03/14 02:43:07;;;;;;;0.70;0.70;;;3.30;99.90;;;;;;5033297;28;20021;-77
2021/03/14 02:45:33;;;;;;;0.70;0.70;;;3.30;99.90;;;;;;5032642;28;20025;-77
2021/03/14 02:48:00;;;;;;;0.70;0.70;;;3.20;99.90;;;;;;5023115;28;20030;-77
2021/03/14 02:50:26;;;;;;;0.70;0.70;;;3.20;99.90;;;;;;5028604;28;20035;-77
2021/03/14 02:52:52;;;;;;;0.70;0.70;;;3.30;99.90;;;;;;5027342;28;20026;-77
2021/03/14 02:55:21;;;;;;;0.70;0.70;;;3.40;99.90;;;;;;5032525;28;20021;-77
2021/03/14 02:57:48;;;;;;;0.70;0.70;;;3.40;99.90;;;;;;5018739;28;20463;-76
2021/03/14 03:00:19;;;;;;;0.70;0.70;;;3.40;99.90;;;;;;5031883;28;20443;-76
2021/03/14 03:02:46;;;;;;;0.60;0.60;;;3.30;99.90;;;;;;5032081;28;20449;-76
2021/03/14 03:05:14;;;;;;;0.70;0.70;;;3.40;99.90;;;;;;5032180;28;20022;-76
2021/03/14 03:07:41;;;;;;;0.60;0.60;;;3.40;99.90;;;;;;5028527;28;20392;-76
2021/03/14 03:10:07;;;;;;;0.80;0.80;;;3.50;99.90;;;;;;5032522;28;20429;-77
2021/03/14 03:12:33;;;;;;;0.70;0.70;;;3.50;99.90;;;;;;5032068;28;20108;-76
2021/03/14 03:15:00;;;;;;;1.07;0.77;;;3.50;99.90;;;;;;5011402;28;20042;-76
2021/03/14 03:17:26;;;;;;;0.70;0.70;;;3.50;99.90;;;;;;5012826;28;20018;-75
2021/03/14 03:19:54;;;;;;;0.77;0.77;;;3.50;99.90;;;;;;5012876;28;20148;-76
2021/03/14 03:22:20;;;;;;;0.70;0.70;;;3.50;99.90;;;;;;5009728;28;20029;-76
2021/03/14 03:24:46;;;;;;;1.43;0.70;;;3.60;99.90;;;;;;5009994;28;20030;-76
2021/03/14 03:27:11;;;;;;;0.70;0.70;;;3.50;99.90;;;;;;5013608;28;20033;-76
2021/03/14 03:29:37;;;;;;;0.70;0.70;;;3.50;99.90;;;;;;5016597;28;20026;-76
2021/03/14 03:32:03;;;;;;;0.70;0.70;;;3.50;99.90;;;;;;5015245;28;20030;-76
2021/03/14 03:34:29;;;;;;;0.70;0.70;;;3.50;99.90;;;;;;5016622;28;20025;-77
2021/03/14 03:36:54;;;;;;;0.70;0.70;;;3.40;99.90;;;;;;5016358;28;20089;-76
2021/03/14 03:39:20;;;;;;;0.50;0.50;;;3.40;99.90;;;;;;5016387;28;20041;-76
2021/03/14 03:42:02;;;;;;;0.70;0.70;;;3.50;99.90;;;;;;5015076;28;20508;-76
2021/03/14 03:44:32;;;;;;;0.70;0.70;;;3.50;99.90;;;;;;5016575;28;20029;-76
2021/03/14 03:46:59;;;;;;;1.07;0.80;;;3.40;99.90;;;;;;5002568;28;20429;-77
2021/03/14 03:49:28;;;;;;;1.60;0.67;;;3.40;99.90;;;;;;5015349;28;20069;-76
2021/03/14 03:51:55;;;;;;;1.27;0.70;;;3.40;99.90;;;;;;5016650;28;20030;-76
2021/03/14 03:54:22;;;;;;;0.80;0.80;;;3.40;99.90;;;;;;5006408;28;20022;-76
2021/03/14 03:56:49;;;;;;;1.00;0.70;;;3.50;99.90;;;;;;5011098;28;20030;-76
2021/03/14 03:59:16;;;;;;;0.73;0.70;;;3.40;99.90;;;;;;5016246;28;20049;-76
2021/03/14 04:01:42;;;;;;;0.80;0.70;;;3.40;99.90;;;;;;5016486;28;20026;-76
2021/03/14 04:04:10;;;;;;;0.70;0.70;;;3.40;99.90;;;;;;5016024;28;20018;-76
2021/03/14 04:06:36;;;;;;;0.60;0.60;;;3.40;99.90;;;;;;5016019;28;20530;-76
2021/03/14 04:09:03;;;;;;;0.77;0.63;;;3.50;99.90;;;;;;5015781;28;20431;-76
2021/03/14 04:11:29;;;;;;;0.83;0.70;;;3.50;99.90;;;;;;5015998;28;20463;-77
2021/03/14 04:13:57;;;;;;;0.70;0.70;;;3.40;99.90;;;;;;5015557;28;20362;-76
2021/03/14 04:16:23;;;;;;;0.53;0.53;;;3.40;99.90;;;;;;5034653;28;20124;-76
2021/03/14 04:18:51;;;;;;;0.60;0.60;;;3.50;99.90;;;;;;5035438;28;20025;-76
2021/03/14 04:21:18;;;;;;;0.97;0.80;;;3.50;99.90;;;;;;5035402;28;20105;-76
2021/03/14 04:23:47;;;;;;;0.70;0.70;;;3.40;99.90;;;;;;5034899;28;20363;-75
2021/03/14 04:26:15;;;;;;;1.03;0.80;;;3.40;99.90;;;;;;5016937;28;20033;-75
2021/03/14 04:28:43;;;;;;;0.70;0.70;;;3.40;99.90;;;;;;5035262;28;20378;-76
2021/03/14 04:31:09;;;;;;;1.87;0.80;;;3.50;99.90;;;;;;5034018;28;20485;-75
2021/03/14 04:33:36;;;;;;;0.90;0.80;;;3.40;99.90;;;;;;5035045;28;20018;-75
2021/03/14 04:36:03;;;;;;;0.73;0.60;;;3.30;99.90;;;;;;5035102;28;20053;-75
2021/03/14 04:38:30;;;;;;;1.27;0.80;;;3.20;99.90;;;;;;5034373;28;20037;-74
2021/03/14 04:40:57;;;;;;;0.70;0.70;;;3.00;99.90;;;;;;5035226;28;20022;-74
2021/03/14 04:43:24;;;;;;;1.43;1.10;;;2.70;99.90;;;;;;5035106;28;20033;-73
2021/03/14 04:45:50;;;;;;;1.67;0.70;;;2.60;99.90;;;;;;5035292;28;20450;-73
2021/03/14 04:48:17;;;;;;;0.93;0.80;;;2.40;99.90;;;;;;5017295;28;20029;-74
2021/03/14 04:50:44;;;;;;;1.27;0.70;;;2.10;99.90;;;;;;5033729;28;20486;-73
2021/03/14 04:53:10;;;;;;;1.20;0.83;;;2.10;99.90;;;;;;5035351;28;20108;-74
2021/03/14 04:55:36;;;;;;;1.60;0.70;;;2.10;99.90;;;;;;5035143;28;20052;-74
2021/03/14 04:58:02;;;;;;;1.23;1.10;;;2.00;99.90;;;;;;5035007;28;20082;-74
2021/03/14 05:00:28;;;;;;;0.77;0.77;;;1.80;99.90;;;;;;5035235;28;20026;-74
2021/03/14 05:02:59;;;;;;;0.70;0.70;;;1.80;99.90;;;;;;5035094;28;20501;-74
2021/03/14 05:05:25;;;;;;;0.87;0.80;;;1.70;99.90;;;;;;5034930;28;20018;-74
2021/03/14 05:07:52;;;;;;;0.70;0.70;;;1.70;99.90;;;;;;5017554;28;20116;-74
2021/03/14 05:10:23;;;;;;;0.80;0.70;;;1.70;99.90;;;;;;5034774;28;20036;-74
2021/03/14 05:12:50;;;;;;;0.80;0.80;;;1.70;99.90;;;;;;5034712;28;20025;-74
2021/03/14 05:15:20;;;;;;;0.70;0.70;;;1.70;99.90;;;;;;5034699;28;20048;-75
2021/03/14 05:17:47;;;;;;;0.77;0.77;;;1.70;99.90;;;;;;5034933;28;20029;-75
2021/03/14 05:20:16;;;;;;;0.90;0.70;;;1.80;99.90;;;;;;5017371;28;20036;-75
2021/03/14 05:22:43;;;;;;;0.90;0.80;;;1.90;99.90;;;;;;5034485;28;20105;-75
2021/03/14 05:25:11;;;;;;;0.93;0.80;;;1.80;99.90;;;;;;5016623;28;20021;-75
2021/03/14 05:27:36;;;;;;;0.80;0.80;;;1.80;99.90;;;;;;5016686;28;20026;-74
2021/03/14 05:30:05;;;;;;;0.70;0.70;;;1.90;99.90;;;;;;5034273;28;20032;-75
2021/03/14 05:32:31;;;;;;;1.03;0.80;;;2.00;99.90;;;;;;5034317;28;20072;-75
2021/03/14 05:34:57;;;;;;;0.97;0.80;;;1.90;99.90;;;;;;5031239;28;20028;-75
2021/03/14 05:37:23;;;;;;;0.80;0.80;;;2.00;99.90;;;;;;5023434;28;20108;-75
2021/03/14 05:39:49;;;;;;;0.97;0.97;;;1.90;99.90;;;;;;5027707;28;20032;-75
2021/03/14 05:42:17;;;;;;;0.97;0.80;;;2.00;99.90;;;;;;5033958;28;20025;-76
2021/03/14 05:44:45;;;;;;;2.80;1.10;;;1.90;99.90;;;;;;5034131;28;20045;-75
2021/03/14 05:47:11;;;;;;;2.23;1.00;;;1.80;99.90;;;;;;5033988;28;20030;-75
2021/03/14 05:49:36;;;;;;;2.10;1.23;;;1.90;99.90;;;;;;5033521;28;20079;-75
2021/03/14 05:52:03;;;;;;;0.90;0.90;;;2.00;99.90;;;;;;5018383;28;20030;-75
2021/03/14 05:54:30;;;;;;;1.80;1.03;;;2.00;99.90;;;;;;5026073;28;20026;-75
2021/03/14 05:56:57;;;;;;;1.07;1.00;;;2.00;99.90;;;;;;5028658;28;20048;-75
2021/03/14 05:59:23;;;;;;;1.77;1.13;;;2.00;99.90;;;;;;5015948;28;20080;-75
2021/03/14 06:01:51;;;;;;;1.77;1.10;;;2.00;99.90;;;;;;5030887;28;20053;-76
2021/03/14 06:04:19;;;;;;;1.20;1.00;;;2.10;99.90;;;;;;5015581;28;20444;-75
2021/03/14 06:06:46;;;;;;;1.27;0.80;;;2.20;99.90;;;;;;5033526;28;20045;-75
2021/03/14 06:09:12;;;;;;;1.60;1.00;;;2.20;99.90;;;;;;5033325;28;20022;-75
2021/03/14 06:11:39;;;;;;;1.50;0.93;;;2.20;99.90;;;;;;5033563;28;20025;-75
2021/03/14 06:14:05;;;;;;;1.97;1.07;;;2.10;99.90;;;;;;5033569;28;20025;-75
2021/03/14 06:16:31;;;;;;;2.87;1.10;;;2.10;99.90;;;;;;5033428;28;20359;-76
2021/03/14 06:18:57;;;;;;;1.77;0.90;;;2.10;99.90;;;;;;5033368;28;20075;-75
2021/03/14 06:21:28;;;;;;;2.07;0.90;;;2.10;99.90;;;;;;5033654;28;20029;-76
2021/03/14 06:24:01;;;;;;;1.73;0.90;;;2.10;99.90;;;;;;5031678;28;20021;-76
2021/03/14 06:26:41;;;;;;;1.77;1.10;;;2.10;99.90;;;;;;5029600;28;20101;-76
2021/03/14 06:29:25;;;;;;;1.37;0.90;;;2.20;99.90;;;;;;5030778;28;20029;-76
2021/03/14 06:31:57;;;;;;;1.00;0.90;;;2.20;99.90;;;;;;5032817;28;20096;-76
2021/03/14 06:34:38;;;;;;;1.00;0.90;;;2.10;99.90;;;;;;5027400;28;20487;-76
2021/03/14 06:37:06;;;;;;;2.57;1.00;;;2.10;99.90;;;;;;5026507;28;20017;-76
2021/03/14 06:39:33;;;;;;;2.53;0.90;;;2.20;99.90;;;;;;5031458;28;20031;-76
2021/03/14 06:41:59;;;;;;;0.97;0.90;;;2.20;99.90;;;;;;5030090;28;20026;-76
2021/03/14 06:44:35;;;;;;;1.20;0.90;;;2.10;99.90;;;;;;5015079;28;20021;-76
2021/03/14 06:47:03;;;;;;;0.90;0.90;;;2.20;99.90;;;;;;5031875;28;20097;-77
2021/03/14 06:49:29;;;;;;;1.10;0.97;;;2.30;99.90;;;;;;5029231;28;20033;-79
2021/03/14 06:51:57;;;;;;;1.50;0.93;;;2.50;99.90;;;;;;5028336;28;20036;-79
2021/03/14 06:54:33;;;;;;;1.80;0.90;;;2.60;99.90;;;;;;5029439;28;20366;-78
2021/03/14 06:56:59;;;;;;;1.13;0.83;;;2.70;99.90;;;;;;5013718;28;20022;-78
2021/03/14 06:59:25;;;;;;;2.00;0.87;;;2.90;99.90;;;;;;5029399;28;20044;-78
2021/03/14 07:02:13;;;;;;;0.90;0.90;;;2.90;99.90;;;;;;5014287;28;20022;-78
2021/03/14 07:04:40;;;;;;;0.63;0.63;;;2.90;99.90;;;;;;5010379;28;20065;-76
2021/03/14 07:07:06;;;;;;;0.80;0.80;;;2.90;99.90;;;;;;5030381;28;20098;-76
2021/03/14 07:09:33;;;;;;;1.10;1.00;;;2.90;99.90;;;;;;5012316;28;20128;-76
2021/03/14 07:11:59;;;;;;;0.70;0.70;;;2.90;99.90;;;;;;5013136;28;20041;-77
2021/03/14 07:14:26;;;;;;;0.90;0.90;;;2.80;99.90;;;;;;5029461;28;20552;-77
2021/03/14 07:16:57;;;;;;;1.43;1.00;;;2.80;99.90;;;;;;5032027;28;20018;-77
2021/03/14 07:19:25;;;;;;;1.00;0.90;;;2.70;99.90;;;;;;5021981;28;20030;-77
2021/03/14 07:22:00;;;;;;;0.77;0.77;;;2.70;99.90;;;;;;5025695;28;20509;-76
2021/03/14 07:24:33;;;;;;;0.75;0.75;;;2.60;99.90;;;;;;5029475;28;20076;-77
2021/03/14 07:27:00;;;;;;;1.40;0.87;;;2.60;99.90;;;;;;5033226;28;20025;-76
2021/03/14 07:29:27;;;;;;;1.00;0.90;;;2.70;99.90;;;;;;5032429;28;20370;-76
2021/03/14 07:31:55;;;;;;;1.53;1.00;;;2.50;99.90;;;;;;5031877;28;20026;-76
2021/03/14 07:34:20;;;;;;;1.00;0.90;;;2.50;99.90;;;;;;5029402;28;20576;-76
2021/03/14 07:36:47;;;;;;;1.43;1.10;;;2.40;99.90;;;;;;5031435;28;20033;-76
2021/03/14 07:39:13;;;;;;;1.20;1.00;;;2.50;99.90;;;;;;5031624;28;20025;-76
2021/03/14 07:41:39;;;;;;;2.27;1.00;;;2.50;99.90;;;;;;5012830;28;20045;-75
2021/03/14 07:44:07;;;;;;;1.10;1.00;;;2.50;99.90;;;;;;5026528;28;20032;-75
2021/03/14 07:46:33;;;;;;;1.80;0.97;;;2.20;99.90;;;;;;5022138;28;20030;-75
2021/03/14 07:49:04;;;;;;;1.00;0.90;;;2.10;99.90;;;;;;5018280;28;20116;-74
2021/03/14 07:51:32;;;;;;;1.20;1.10;;;2.10;99.90;;;;;;5016425;28;20025;-72
2021/03/14 07:54:03;;;;;;;1.30;1.20;;;2.00;99.90;;;;;;5015928;28;20040;-72
2021/03/14 07:56:34;;;;;;;1.10;1.00;;;1.90;99.90;;;;;;5030851;28;20076;-72
2021/03/14 07:59:00;;;;;;;1.00;0.90;;;1.90;99.90;;;;;;5030377;28;20044;-74
2021/03/14 08:01:34;;;;;;;2.93;1.20;;;1.90;99.90;;;;;;5033503;28;20029;-72
2021/03/14 08:04:01;;;;;;;1.90;1.20;;;1.80;99.90;;;;;;5017710;28;20030;-74
2021/03/14 08:06:45;;;;;;;1.77;1.20;;;1.80;99.90;;;;;;5030427;28;20390;-71
2021/03/14 08:09:13;;;;;;;1.73;1.00;;;1.70;99.90;;;;;;5030128;28;20083;-72
2021/03/14 08:11:39;;;;;;;2.70;1.13;;;1.70;99.90;;;;;;5020176;28;20025;-72
2021/03/14 08:14:04;;;;;;;1.90;1.17;;;1.70;99.90;;;;;;5022598;28;20083;-72
2021/03/14 08:16:30;;;;;;;1.83;1.30;;;1.70;99.90;;;;;;5025025;28;20041;-72
2021/03/14 08:18:57;;;;;;;2.30;1.10;;;1.70;99.90;;;;;;5026850;28;20018;-72
2021/03/14 08:21:29;;;;;;;1.93;1.07;;;1.70;99.90;;;;;;5026152;28;20466;-72
2021/03/14 08:23:56;;;;;;;3.43;1.10;;;1.80;99.90;;;;;;5027801;28;20025;-74
2021/03/14 08:26:26;;;;;;;2.17;1.30;;;1.80;99.90;;;;;;5028976;28;20116;-75
2021/03/14 08:29:09;;;;;;;2.60;1.20;;;1.70;99.90;;;;;;5024784;28;20058;-74
2021/03/14 08:31:40;;;;;;;2.53;1.30;;;1.70;99.90;;;;;;5024899;28;20032;-75
2021/03/14 08:34:09;;;;;;;2.43;1.13;;;1.60;99.90;;;;;;5026354;28;20086;-72
2021/03/14 08:36:37;;;;;;;3.27;1.37;;;1.70;99.90;;;;;;5027836;28;20029;-72
2021/03/14 08:39:06;;;;;;;1.27;1.10;;;1.70;99.90;;;;;;5028722;28;20035;-74
2021/03/14 08:41:39;;;;;;;1.10;1.00;;;1.60;99.90;;;;;;5024552;28;20155;-72
2021/03/14 08:44:14;;;;;;;2.50;1.30;;;1.80;99.90;;;;;;5028704;28;20021;-72
2021/03/14 08:46:48;;;;;;;2.45;1.25;;;1.70;99.90;;;;;;5028517;28;20078;-72
2021/03/14 08:49:18;;;;;;;1.35;1.20;;;1.80;99.90;;;;;;5029340;28;20079;-72
2021/03/14 08:51:44;;;;;;;3.27;1.30;;;1.90;99.90;;;;;;5028459;28;20539;-73
2021/03/14 08:54:11;;;;;;;1.37;1.10;;;2.00;99.90;;;;;;5032267;28;20014;-74
2021/03/14 08:56:37;;;;;;;2.50;1.13;;;2.10;99.90;;;;;;5028503;28;20022;-73
2021/03/14 08:59:09;;;;;;;2.87;1.57;;;2.20;99.90;;;;;;5029138;28;20171;-75
2021/03/14 09:01:36;;;;;;;2.67;1.30;;;2.40;99.90;;;;;;5029145;28;20068;-74
2021/03/14 09:04:19;;;;;;;2.00;1.27;;;2.50;99.90;;;;;;5031428;28;20033;-74
2021/03/14 09:06:45;;;;;;;5.90;1.80;;;2.60;99.90;;;;;;5023436;28;20025;-73
2021/03/14 09:09:16;;;;;;;2.13;1.43;;;2.80;99.90;;;;;;5031391;28;20025;-73
2021/03/14 09:11:44;;;;;;;3.13;1.50;;;2.90;99.90;;;;;;5031772;28;20040;-73
2021/03/14 09:14:22;;;;;;;2.53;1.40;;;3.10;99.90;;;;;;5031331;28;20025;-73
2021/03/14 09:16:51;;;;;;;3.00;1.37;;;3.20;99.90;;;;;;5013141;28;20068;-74
2021/03/14 09:19:24;;;;;;;3.30;1.17;;;3.20;99.90;;;;;;5031761;28;20022;-74
2021/03/14 09:21:55;;;;;;;3.13;1.40;;;3.30;99.90;;;;;;5031406;28;20730;-74
2021/03/14 09:24:37;;;;;;;2.67;1.60;;;3.30;99.90;;;;;;5030004;28;20025;-74
2021/03/14 09:27:06;;;;;;;3.30;1.57;;;3.40;99.90;;;;;;5015498;28;20033;-74
2021/03/14 09:29:55;;;;;;;2.37;1.30;;;3.50;99.90;;;;;;5026093;28;20128;-74
2021/03/14 09:32:37;;;;;;;2.73;1.50;;;3.60;99.90;;;;;;5015648;28;20048;-74
2021/03/14 09:35:16;;;;;;;3.07;1.60;;;3.60;99.90;;;;;;5031808;28;20548;-74
2021/03/14 09:37:42;;;;;;;4.13;1.30;;;3.60;99.90;;;;;;5031835;28;20026;-74
2021/03/14 09:40:28;;;;;;;1.10;1.00;;;3.70;99.90;;;;;;5032117;28;20013;-74
2021/03/14 09:43:22;;;;;;;2.03;1.40;;;3.80;99.90;;;;;;5032081;28;20051;-74
2021/03/14 09:45:52;;;;;;;3.53;1.40;;;3.70;99.90;;;;;;5031312;28;20030;-74
2021/03/14 09:48:20;;;;;;;2.87;1.40;;;3.80;99.90;;;;;;5031991;28;20501;-73
2021/03/14 09:51:02;;;;;;;3.03;1.30;;;4.00;99.90;;;;;;5029176;28;20108;-74
2021/03/14 09:53:36;;;;;;;3.37;1.40;;;4.20;99.90;;;;;;5017464;28;20098;-73
2021/03/14 09:56:07;;;;;;;3.47;1.30;;;4.30;99.90;;;;;;5027252;28;20473;-75
2021/03/14 09:58:34;;;;;;;2.00;1.10;;;4.30;99.90;;;;;;5030781;28;20021;-75
2021/03/14 10:01:00;;;;;;;2.87;1.30;;;4.10;99.90;;;;;;5031108;28;20086;-75
2021/03/14 10:03:35;;;;;;;3.83;1.40;;;4.10;99.90;;;;;;5030089;28;20025;-75
2021/03/14 10:06:03;;;;;;;3.05;1.58;;;4.00;99.90;;;;;;5003006;28;20028;-75
2021/03/14 10:08:34;;;;;;;3.03;1.30;;;3.90;99.90;;;;;;5029597;28;20038;-75
2021/03/14 10:11:03;;;;;;;1.93;1.40;;;4.00;99.90;;;;;;5031040;28;20359;-75
2021/03/14 10:13:29;;;;;;;2.70;1.53;;;4.00;99.90;;;;;;5030910;28;20036;-74
2021/03/14 10:15:58;;;;;;;2.33;1.23;;;4.00;99.90;;;;;;5030624;28;20501;-75
2021/03/14 10:18:25;;;;;;;2.70;1.30;;;3.90;99.90;;;;;;5030858;28;20049;-76
2021/03/14 10:20:52;;;;;;;3.80;1.63;;;3.90;99.90;;;;;;5030566;28;20733;-75
2021/03/14 10:23:23;;;;;;;2.67;1.50;;;3.90;99.90;;;;;;5027060;28;20375;-75
2021/03/14 10:25:50;;;;;;;3.03;1.40;;;4.00;99.90;;;;;;5030526;28;20440;-75
2021/03/14 10:28:20;;;;;;;2.93;1.57;;;4.00;99.90;;;;;;5030420;28;20104;-76
2021/03/14 10:30:47;;;;;;;1.77;1.30;;;4.00;99.90;;;;;;5030770;28;20021;-75
2021/03/14 10:33:28;;;;;;;3.03;1.60;;;4.30;99.90;;;;;;5030757;28;20033;-76
2021/03/14 10:36:09;;;;;;;2.87;1.43;;;4.40;99.90;;;;;;5029471;28;20034;-76
2021/03/14 10:38:44;;;;;;;1.93;1.50;;;4.80;99.90;;;;;;5029280;28;20370;-76
2021/03/14 10:41:15;;;;;;;2.55;1.30;;;4.90;99.90;;;;;;5029290;28;20032;-75
2021/03/14 10:43:55;;;;;;;2.43;1.10;;;4.90;99.90;;;;;;5029885;28;20033;-76
2021/03/14 10:46:41;;;;;;;3.20;1.63;;;4.90;99.90;;;;;;5045827;28;20029;-75
2021/03/14 10:49:13;;;;;;;3.37;1.30;;;4.90;99.90;;;;;;5029522;28;20364;-76
2021/03/14 10:51:40;;;;;;;3.40;1.23;;;4.80;99.90;;;;;;5030264;28;20033;-75
2021/03/14 10:54:16;;;;;;;1.77;1.17;;;4.60;99.90;;;;;;5031841;28;20026;-76
2021/03/14 10:56:48;;;;;;;5.60;1.20;;;4.60;99.90;;;;;;5032797;28;20463;-75
2021/03/14 10:59:31;;;;;;;3.47;1.20;;;4.60;99.90;;;;;;5025768;28;20022;-74
2021/03/14 11:02:13;;;;;;;2.30;1.53;;;4.50;99.90;;;;;;5014145;28;20026;-72
2021/03/14 11:04:39;;;;;;;2.73;1.20;;;4.50;99.90;;;;;;5032880;28;20335;-73
2021/03/14 11:07:35;;;;;;;2.27;1.43;;;4.60;99.90;;;;;;5001217;28;20033;-73
2021/03/14 11:10:17;;;;;;;2.67;1.27;;;4.80;99.90;;;;;;5032637;28;20366;-73
2021/03/14 11:12:44;;;;;;;3.73;1.50;;;4.90;99.90;;;;;;5032741;28;20033;-73
2021/03/14 11:15:31;;;;;;;3.80;1.80;;;5.10;99.90;;;;;;5032771;28;20052;-73
2021/03/14 11:17:59;;;;;;;2.07;1.17;;;5.20;99.90;;;;;;5031197;28;20093;-70
2021/03/14 11:20:27;;;;;;;3.13;1.70;;;5.40;99.90;;;;;;5030338;28;20029;-73
2021/03/14 11:22:55;;;;;;;4.90;1.57;;;5.50;99.90;;;;;;5031233;28;20540;-73
2021/03/14 11:25:22;;;;;;;2.30;1.40;;;5.50;99.90;;;;;;5031788;28;20479;-74
2021/03/14 11:27:48;;;;;;;4.40;1.50;;;5.70;99.90;;;;;;5031586;28;20072;-73
2021/03/14 11:30:16;;;;;;;4.97;1.60;;;5.70;99.90;;;;;;5003249;28;20079;-73
2021/03/14 11:32:42;;;;;;;6.60;1.57;;;5.80;99.90;;;;;;5029450;28;20029;-73
2021/03/14 11:35:09;;;;;;;2.13;1.40;;;5.90;99.90;;;;;;5023924;28;20036;-73
2021/03/14 11:37:35;;;;;;;5.23;2.07;;;5.70;99.90;;;;;;5030966;28;20021;-74
2021/03/14 11:40:01;;;;;;;2.37;1.50;;;5.60;99.90;;;;;;5030987;28;20104;-74
2021/03/14 11:42:26;;;;;;;4.40;1.70;;;5.40;99.90;;;;;;5013297;28;20072;-74
2021/03/14 11:44:55;;;;;;;2.70;1.20;;;5.20;99.90;;;;;;5030999;28;20121;-75
2021/03/14 11:47:21;;;;;;;2.50;1.23;;;5.20;99.90;;;;;;5028248;28;20021;-74
2021/03/14 11:49:47;;;;;;;3.17;1.30;;;5.50;99.90;;;;;;5034505;28;20419;-74
2021/03/14 11:52:12;;;;;;;2.40;1.37;;;5.80;99.90;;;;;;5034888;28;20107;-73
2021/03/14 11:54:38;;;;;;;2.33;1.30;;;6.20;99.90;;;;;;5015355;28;20025;-75
2021/03/14 11:57:03;;;;;;;2.93;1.33;;;6.70;99.90;;;;;;5032467;28;20040;-75
2021/03/14 11:59:29;;;;;;;4.70;1.60;;;7.00;99.90;;;;;;5032304;28;20132;-74
2021/03/14 12:01:55;;;;;;;3.83;1.50;;;7.00;99.90;;;;;;5032234;28;20800;-75
2021/03/14 12:04:21;;;;;;;2.33;1.23;;;6.90;99.90;;;;;;5032105;28;20026;-75
2021/03/14 12:06:47;;;;;;;3.67;1.50;;;6.60;99.90;;;;;;5032421;28;20049;-75
2021/03/14 12:09:12;;;;;;;3.03;1.40;;;6.40;99.90;;;;;;5031935;28;20068;-75
2021/03/14 12:11:38;;;;;;;2.47;1.33;;;6.00;99.90;;;;;;5031801;28;20021;-75
2021/03/14 12:14:03;;;;;;;3.53;1.37;;;5.90;99.90;;;;;;5029862;28;20025;-75
2021/03/14 12:16:29;;;;;;;3.13;1.37;;;5.80;99.90;;;;;;5029865;28;20026;-75
2021/03/14 12:18:55;;;;;;;3.37;1.43;;;5.60;99.90;;;;;;5031759;28;20045;-75
2021/03/14 12:21:21;;;;;;;1.57;1.00;;;5.40;99.90;;;;;;5023353;28;20043;-75
2021/03/14 12:23:46;;;;;;;1.50;1.20;;;5.20;99.90;;;;;;5031534;28;20021;-75
2021/03/14 12:26:12;;;;;;;3.23;1.60;;;5.40;99.90;;;;;;5026000;28;20045;-76
2021/03/14 12:28:38;;;;;;;2.47;1.20;;;5.50;99.90;;;;;;5032973;28;20037;-73
2021/03/14 12:31:04;;;;;;;4.10;1.50;;;5.60;99.90;;;;;;5030284;28;20029;-73
2021/03/14 12:33:30;;;;;;;2.10;1.43;;;5.60;99.90;;;;;;5032422;28;20026;-73
2021/03/14 12:35:55;;;;;;;4.27;1.70;;;5.60;99.90;;;;;;5034942;28;20029;-73
2021/03/14 12:38:21;;;;;;;3.27;1.30;;;5.70;99.90;;;;;;5032897;28;20026;-75
2021/03/14 12:40:47;;;;;;;3.83;1.83;;;5.80;99.90;;;;;;5031941;28;20413;-76
2021/03/14 12:43:14;;;;;;;3.13;1.37;;;6.00;99.90;;;;;;5031162;28;20033;-74
2021/03/14 12:45:41;;;;;;;2.17;1.20;;;6.30;99.90;;;;;;5006357;28;20021;-75
2021/03/14 12:48:07;;;;;;;3.17;1.50;;;6.70;99.90;;;;;;5019903;28;20116;-75
2021/03/14 12:50:33;;;;;;;3.90;1.67;;;6.80;99.90;;;;;;5032372;28;20026;-76
2021/03/14 12:52:58;;;;;;;2.87;1.30;;;6.90;99.90;;;;;;5033018;28;20032;-76
2021/03/14 12:55:25;;;;;;;3.50;1.63;;;6.80;99.90;;;;;;5037334;28;20465;-77
2021/03/14 12:57:51;;;;;;;2.83;1.23;;;6.60;99.90;;;;;;5031409;28;20018;-76
2021/03/14 13:00:17;;;;;;;2.03;1.40;;;6.70;99.90;;;;;;5030453;28;20030;-76
2021/03/14 13:02:43;;;;;;;3.73;1.80;;;6.60;99.90;;;;;;5030916;28;20036;-76
2021/03/14 13:05:09;;;;;;;4.50;1.83;;;6.50;99.90;;;;;;5020877;28;20025;-76